Time;durP1;ratioP1;P1;durP2;ratioP2;P2;SDS_P1;SDS_P2;PMS_P1;PMS_P2;Temp;Humidity;BMP_temperature;BMP_pressure;BME280_temperature;BME280_humidity;BME280_pressure;Samples;Min_cycle;Max_cycle;Signal;HPM_P1;HPM_P2
2022/10/10 00:00:50;;;;;;;8.32;6.32;;;7.50;99.90;;;;;;5039195;28;20030;-58
2022/10/10 00:03:17;;;;;;;7.10;6.40;;;7.50;99.90;;;;;;5040407;28;20120;-58
2022/10/10 00:05:43;;;;;;;7.25;6.13;;;7.50;99.90;;;;;;5036203;28;20532;-57
2022/10/10 00:08:09;;;;;;;7.75;6.43;;;7.50;99.90;;;;;;5037511;28;20057;-58
2022/10/10 00:10:36;;;;;;;7.20;6.50;;;7.50;99.90;;;;;;5036707;28;20516;-59
2022/10/10 00:13:02;;;;;;;6.82;6.25;;;7.50;99.90;;;;;;5034933;28;20485;-59
2022/10/10 00:15:28;;;;;;;8.77;6.10;;;7.50;99.90;;;;;;5036679;28;20400;-59
2022/10/10 00:17:53;;;;;;;9.27;6.65;;;7.50;99.90;;;;;;5037967;28;20030;-59
2022/10/10 00:20:20;;;;;;;6.47;5.18;;;7.50;99.90;;;;;;5038843;28;20669;-59
2022/10/10 00:22:46;;;;;;;6.10;5.57;;;7.50;99.90;;;;;;5039962;28;20094;-58
2022/10/10 00:25:12;;;;;;;5.95;5.35;;;7.50;99.90;;;;;;5041843;28;20025;-59
2022/10/10 00:27:39;;;;;;;9.63;6.05;;;7.50;99.90;;;;;;5037806;28;20040;-59
2022/10/10 00:30:07;;;;;;;9.65;6.25;;;7.50;99.90;;;;;;5039489;28;20501;-59
2022/10/10 00:32:33;;;;;;;8.40;5.57;;;7.40;99.90;;;;;;5040377;28;20036;-58
2022/10/10 00:34:59;;;;;;;8.30;5.15;;;7.40;99.90;;;;;;5040822;28;20106;-58
2022/10/10 00:37:25;;;;;;;10.55;5.93;;;7.40;99.90;;;;;;5040032;28;20033;-59
2022/10/10 00:39:51;;;;;;;7.85;5.55;;;7.40;99.90;;;;;;5040906;28;20378;-59
2022/10/10 00:42:18;;;;;;;11.68;6.45;;;7.40;99.90;;;;;;5042847;28;20128;-58
2022/10/10 00:45:05;;;;;;;18.58;7.00;;;7.40;99.90;;;;;;5044112;28;20113;-58
2022/10/10 00:47:30;;;;;;;10.20;5.78;;;7.40;99.90;;;;;;5040716;28;20071;-58
2022/10/10 00:49:56;;;;;;;6.57;5.90;;;7.40;99.90;;;;;;5040806;28;20041;-59
2022/10/10 00:52:22;;;;;;;7.43;5.95;;;7.40;99.90;;;;;;5039325;28;20083;-59
2022/10/10 00:54:47;;;;;;;9.30;5.70;;;7.40;99.90;;;;;;5040217;28;20034;-59
2022/10/10 00:57:14;;;;;;;6.07;5.20;;;7.40;99.90;;;;;;5045776;28;20152;-58
2022/10/10 00:59:43;;;;;;;11.68;6.22;;;7.50;99.90;;;;;;5038813;28;20021;-59
2022/10/10 01:02:08;;;;;;;7.60;5.55;;;7.50;99.90;;;;;;5040878;28;20443;-59
2022/10/10 01:04:42;;;;;;;7.68;5.45;;;7.50;99.90;;;;;;5022096;28;20025;-59
2022/10/10 01:07:15;;;;;;;7.93;5.55;;;7.50;99.90;;;;;;5028908;28;20408;-59
2022/10/10 01:09:43;;;;;;;9.80;5.70;;;7.50;99.90;;;;;;5021183;28;20124;-58
2022/10/10 01:12:33;;;;;;;10.70;5.63;;;7.50;99.90;;;;;;5027651;28;20044;-59
2022/10/10 01:15:11;;;;;;;9.50;5.18;;;7.50;99.90;;;;;;5042420;28;20098;-59
2022/10/10 01:17:55;;;;;;;9.05;6.28;;;7.50;99.90;;;;;;5042076;28;20164;-60
2022/10/10 01:20:39;;;;;;;9.70;6.10;;;7.50;99.90;;;;;;5041216;28;20061;-59
2022/10/10 01:23:34;;;;;;;6.95;6.03;;;7.50;99.90;;;;;;5040371;28;20036;-58
2022/10/10 01:26:27;;;;;;;10.57;6.65;;;7.50;99.90;;;;;;5041025;28;20021;-60
2022/10/10 01:29:21;;;;;;;7.05;6.43;;;7.50;99.90;;;;;;5040674;28;20036;-57
2022/10/10 01:31:51;;;;;;;7.63;6.22;;;7.50;99.90;;;;;;5039349;28;20042;-59
2022/10/10 01:34:53;;;;;;;7.97;6.17;;;7.50;99.90;;;;;;5039152;28;20481;-59
2022/10/10 01:37:24;;;;;;;7.18;6.00;;;7.50;99.90;;;;;;5036826;28;20063;-58
2022/10/10 01:40:19;;;;;;;9.20;6.22;;;7.40;99.90;;;;;;5035836;28;20025;-59
2022/10/10 01:42:52;;;;;;;9.77;6.30;;;7.50;99.90;;;;;;5038728;28;20498;-62
2022/10/10 01:45:18;;;;;;;7.28;6.13;;;7.40;99.90;;;;;;5038811;28;20103;-58
2022/10/10 01:47:43;;;;;;;6.82;6.13;;;7.50;99.90;;;;;;5042037;28;20029;-58
2022/10/10 01:50:15;;;;;;;6.60;6.10;;;7.50;99.90;;;;;;5035393;28;20056;-59
2022/10/10 01:52:57;;;;;;;10.45;6.38;;;7.50;99.90;;;;;;5039002;28;20117;-56
2022/10/10 01:56:01;;;;;;;11.52;6.93;;;7.50;99.90;;;;;;5041034;28;20385;-59
2022/10/10 01:58:53;;;;;;;11.00;6.38;;;7.50;99.90;;;;;;5035893;28;20048;-59
2022/10/10 02:01:40;;;;;;;7.03;6.38;;;7.60;99.90;;;;;;5042123;28;20013;-58
2022/10/10 02:04:15;;;;;;;8.10;5.50;;;7.60;99.90;;;;;;5036262;28;20071;-58
2022/10/10 02:06:46;;;;;;;7.63;5.80;;;7.60;99.90;;;;;;5038218;28;20025;-58
2022/10/10 02:09:14;;;;;;;;;;;7.60;99.90;;;;;;5038904;28;20087;-58
2022/10/10 02:11:41;;;;;;;6.20;5.60;;;7.50;99.90;;;;;;5036290;28;19950;-59
2022/10/10 02:14:27;;;;;;;14.45;6.45;;;7.50;99.90;;;;;;5039131;28;20446;-59
2022/10/10 02:16:55;;;;;;;8.70;5.70;;;7.40;99.90;;;;;;5038687;28;20044;-59
2022/10/10 02:19:23;;;;;;;14.48;5.57;;;7.30;99.90;;;;;;5041703;28;20021;-59
2022/10/10 02:21:51;;;;;;;14.82;6.85;;;7.30;99.90;;;;;;5021875;28;20512;-58
2022/10/10 02:24:20;;;;;;;8.23;6.30;;;7.20;99.90;;;;;;5037854;28;20037;-59
2022/10/10 02:26:49;;;;;;;6.15;5.60;;;7.20;99.90;;;;;;5040598;28;20045;-58
2022/10/10 02:29:19;;;;;;;6.97;5.78;;;7.20;99.90;;;;;;5036799;28;20025;-58
2022/10/10 02:31:56;;;;;;;6.30;5.65;;;7.10;99.90;;;;;;5038024;28;20121;-59
2022/10/10 02:34:29;;;;;;;6.50;5.72;;;7.10;99.90;;;;;;5035205;28;20022;-58
2022/10/10 02:36:59;;;;;;;10.68;6.75;;;7.00;99.90;;;;;;5038470;28;20100;-58
2022/10/10 02:39:28;;;;;;;9.45;6.43;;;7.00;99.90;;;;;;5035831;28;20440;-59
2022/10/10 02:41:54;;;;;;;7.88;6.25;;;6.90;99.90;;;;;;5037992;28;20035;-59
2022/10/10 02:44:21;;;;;;;10.45;6.80;;;6.90;99.90;;;;;;5039843;28;20653;-58
2022/10/10 02:46:46;;;;;;;6.88;6.05;;;6.90;99.90;;;;;;5040602;28;20037;-58
2022/10/10 02:49:12;;;;;;;9.63;6.75;;;6.90;99.90;;;;;;5039543;28;20029;-59
2022/10/10 02:51:38;;;;;;;7.97;6.65;;;6.90;99.90;;;;;;5035034;28;20390;-58
2022/10/10 02:54:04;;;;;;;8.50;5.93;;;6.80;99.90;;;;;;5036483;28;20075;-58
2022/10/10 02:56:30;;;;;;;15.55;6.45;;;6.80;99.90;;;;;;5040730;28;20033;-59
2022/10/10 02:58:56;;;;;;;8.68;6.20;;;6.80;99.90;;;;;;5038271;28;20431;-59
2022/10/10 03:01:22;;;;;;;6.97;6.22;;;6.80;99.90;;;;;;5039490;28;20040;-59
2022/10/10 03:03:48;;;;;;;7.85;7.15;;;6.80;99.90;;;;;;5035265;28;20033;-58
2022/10/10 03:06:13;;;;;;;12.30;7.25;;;6.80;99.90;;;;;;5037706;28;20450;-59
2022/10/10 03:08:39;;;;;;;11.63;6.82;;;6.70;99.90;;;;;;5039383;28;20033;-58
2022/10/10 03:11:05;;;;;;;8.63;6.75;;;6.70;99.90;;;;;;5038774;28;20025;-58
2022/10/10 03:13:31;;;;;;;9.65;7.20;;;6.70;99.90;;;;;;5039580;28;20021;-59
2022/10/10 03:15:57;;;;;;;14.98;7.45;;;6.70;99.90;;;;;;5040391;28;20031;-57
2022/10/10 03:18:22;;;;;;;8.02;7.20;;;6.70;99.90;;;;;;5040559;28;20025;-59
2022/10/10 03:20:53;;;;;;;12.20;7.65;;;6.70;99.90;;;;;;5036281;28;20095;-59
2022/10/10 03:23:19;;;;;;;11.32;7.20;;;6.60;99.90;;;;;;5039488;28;20036;-59
2022/10/10 03:25:45;;;;;;;13.80;7.43;;;6.60;99.90;;;;;;5037195;28;20037;-59
2022/10/10 03:28:11;;;;;;;9.27;7.90;;;6.60;99.90;;;;;;5034225;28;20101;-59
2022/10/10 03:30:38;;;;;;;11.35;7.07;;;6.60;99.90;;;;;;5034015;28;20115;-59
2022/10/10 03:33:04;;;;;;;11.25;7.05;;;6.60;99.90;;;;;;5035754;28;20022;-58
2022/10/10 03:35:29;;;;;;;9.57;6.97;;;6.60;99.90;;;;;;5041681;28;20374;-58
2022/10/10 03:37:56;;;;;;;8.23;7.30;;;6.60;99.90;;;;;;5035581;28;20088;-59
2022/10/10 03:40:21;;;;;;;8.43;7.55;;;6.60;99.90;;;;;;5037170;28;20033;-61
2022/10/10 03:42:47;;;;;;;7.47;6.88;;;6.60;99.90;;;;;;5038921;28;20033;-60
2022/10/10 03:45:13;;;;;;;8.57;7.43;;;6.60;99.90;;;;;;5035881;28;20053;-62
2022/10/10 03:47:38;;;;;;;14.38;8.55;;;6.60;99.90;;;;;;5037083;28;20025;-61
2022/10/10 03:50:04;;;;;;;12.43;7.80;;;6.60;99.90;;;;;;5033830;28;20897;-62
2022/10/10 03:52:30;;;;;;;8.63;7.32;;;6.50;99.90;;;;;;5033875;28;20021;-61
2022/10/10 03:54:56;;;;;;;9.30;7.72;;;6.60;99.90;;;;;;5037252;28;20029;-61
2022/10/10 03:57:21;;;;;;;8.35;7.30;;;6.50;99.90;;;;;;5035750;28;20055;-60
2022/10/10 03:59:47;;;;;;;9.15;7.00;;;6.50;99.90;;;;;;5038017;28;20037;-61
2022/10/10 04:02:13;;;;;;;9.10;6.70;;;6.50;99.90;;;;;;5037695;28;20017;-61
2022/10/10 04:04:38;;;;;;;26.83;9.38;;;6.50;99.90;;;;;;5039180;28;20056;-61
2022/10/10 04:07:04;;;;;;;8.77;7.20;;;6.50;99.90;;;;;;5038075;28;20100;-61
2022/10/10 04:09:30;;;;;;;11.23;6.65;;;6.50;99.90;;;;;;5033342;28;20021;-61
2022/10/10 04:11:55;;;;;;;10.40;6.80;;;6.50;99.90;;;;;;5034601;28;20102;-61
2022/10/10 04:14:21;;;;;;;16.23;6.68;;;6.50;99.90;;;;;;5038154;28;20045;-61
2022/10/10 04:16:47;;;;;;;6.53;5.78;;;6.60;99.90;;;;;;5037010;28;20033;-61
2022/10/10 04:19:13;;;;;;;6.28;5.68;;;6.60;99.90;;;;;;5017014;28;20041;-61
2022/10/10 04:21:39;;;;;;;9.43;6.25;;;6.60;99.90;;;;;;5032031;28;20049;-61
2022/10/10 04:24:05;;;;;;;7.00;6.30;;;6.70;99.90;;;;;;5037643;28;20055;-61
2022/10/10 04:26:31;;;;;;;8.50;6.88;;;6.70;99.90;;;;;;5035410;28;20553;-61
2022/10/10 04:28:56;;;;;;;8.02;7.15;;;6.80;99.90;;;;;;5037751;28;20039;-60
2022/10/10 04:31:22;;;;;;;7.85;6.60;;;6.80;99.90;;;;;;5038368;28;20515;-61
2022/10/10 04:33:48;;;;;;;8.98;7.65;;;6.90;99.90;;;;;;5037820;28;20032;-61
2022/10/10 04:36:14;;;;;;;10.60;6.82;;;7.00;99.90;;;;;;5034518;28;20037;-62
2022/10/10 04:38:39;;;;;;;8.73;6.80;;;7.10;99.90;;;;;;5035122;28;20381;-60
2022/10/10 04:41:05;;;;;;;11.65;6.10;;;7.10;99.90;;;;;;5038780;28;20024;-61
2022/10/10 04:43:31;;;;;;;8.60;6.35;;;7.10;99.90;;;;;;5037264;28;20017;-61
2022/10/10 04:45:57;;;;;;;6.95;6.10;;;7.20;99.90;;;;;;5042649;28;20017;-60
2022/10/10 04:48:23;;;;;;;8.57;6.50;;;7.20;99.90;;;;;;5037870;28;20368;-61
2022/10/10 04:50:53;;;;;;;8.35;5.72;;;7.20;99.90;;;;;;5035871;28;20021;-62
2022/10/10 04:53:19;;;;;;;7.15;5.25;;;7.30;99.90;;;;;;5034933;28;20026;-61
2022/10/10 04:55:44;;;;;;;6.57;5.50;;;7.30;99.90;;;;;;5032981;28;20563;-63
2022/10/10 04:58:10;;;;;;;6.00;4.95;;;7.40;99.90;;;;;;5038196;28;20025;-61
2022/10/10 05:00:37;;;;;;;9.05;5.10;;;7.40;99.90;;;;;;5036314;28;20055;-61
2022/10/10 05:03:03;;;;;;;5.97;5.47;;;7.40;99.90;;;;;;5038672;28;20025;-61
2022/10/10 05:05:29;;;;;;;4.75;4.35;;;7.40;99.90;;;;;;5038940;28;20021;-61
2022/10/10 05:07:55;;;;;;;6.72;5.38;;;7.40;99.90;;;;;;5043351;28;20108;-62
2022/10/10 05:10:20;;;;;;;10.65;5.18;;;7.40;99.90;;;;;;5039334;28;20122;-61
2022/10/10 05:12:46;;;;;;;7.20;5.28;;;7.40;99.90;;;;;;5040835;28;20029;-61
2022/10/10 05:15:11;;;;;;;5.95;5.40;;;7.40;99.90;;;;;;5046065;28;20029;-60
2022/10/10 05:17:37;;;;;;;6.20;5.57;;;7.40;99.90;;;;;;5043973;28;20025;-62
2022/10/10 05:20:03;;;;;;;8.50;5.28;;;7.40;99.90;;;;;;5041812;28;20124;-60
2022/10/10 05:22:29;;;;;;;5.68;5.18;;;7.40;99.90;;;;;;5040665;28;20477;-61
2022/10/10 05:24:55;;;;;;;8.80;5.30;;;7.50;99.90;;;;;;5039975;28;20488;-62
2022/10/10 05:27:21;;;;;;;5.88;5.03;;;7.50;99.90;;;;;;5038286;28;20030;-62
2022/10/10 05:29:46;;;;;;;8.18;4.82;;;7.50;99.90;;;;;;5040681;28;20036;-62
2022/10/10 05:32:12;;;;;;;5.22;4.72;;;7.60;99.90;;;;;;5039555;28;20033;-61
2022/10/10 05:34:37;;;;;;;9.82;5.28;;;7.60;99.90;;;;;;5037395;28;20056;-61
2022/10/10 05:37:03;;;;;;;6.78;5.53;;;7.60;99.90;;;;;;5038703;28;20052;-61
2022/10/10 05:39:29;;;;;;;8.82;6.72;;;7.70;99.90;;;;;;5042045;28;20110;-61
2022/10/10 05:41:55;;;;;;;8.48;5.78;;;7.80;99.90;;;;;;5038433;28;20056;-62
2022/10/10 05:44:20;;;;;;;7.82;4.78;;;7.80;99.90;;;;;;5033906;28;20036;-58
2022/10/10 05:46:46;;;;;;;5.95;5.18;;;7.80;99.90;;;;;;5035824;28;20033;-59
2022/10/10 05:49:11;;;;;;;11.02;5.10;;;7.80;99.90;;;;;;5036956;28;20029;-58
2022/10/10 05:51:37;;;;;;;7.57;5.10;;;7.90;99.90;;;;;;5035253;28;20025;-59
2022/10/10 05:54:04;;;;;;;7.07;5.60;;;8.00;99.90;;;;;;5036632;28;20060;-58
2022/10/10 05:56:29;;;;;;;6.45;4.70;;;8.00;99.90;;;;;;5041663;28;20068;-59
2022/10/10 05:58:55;;;;;;;7.10;4.18;;;8.00;99.90;;;;;;5039318;28;20342;-59
2022/10/10 06:01:20;;;;;;;6.38;4.25;;;8.00;99.90;;;;;;5043091;28;20021;-58
2022/10/10 06:03:51;;;;;;;6.25;4.15;;;8.10;99.90;;;;;;5037545;28;20029;-58
2022/10/10 06:06:17;;;;;;;5.60;4.10;;;8.10;99.90;;;;;;5044404;28;20036;-59
2022/10/10 06:08:43;;;;;;;5.80;3.83;;;8.10;99.90;;;;;;5040854;28;20033;-59
2022/10/10 06:11:09;;;;;;;6.82;3.78;;;8.20;99.90;;;;;;5037755;28;20469;-59
2022/10/10 06:13:37;;;;;;;5.20;3.90;;;8.20;99.90;;;;;;5038054;28;20962;-59
2022/10/10 06:16:02;;;;;;;5.18;4.35;;;8.30;99.90;;;;;;5040036;28;20091;-59
2022/10/10 06:18:28;;;;;;;7.50;3.80;;;8.30;99.90;;;;;;5040210;28;20021;-59
2022/10/10 06:20:54;;;;;;;5.78;3.95;;;8.30;99.90;;;;;;5042765;28;20037;-59
2022/10/10 06:23:20;;;;;;;5.97;4.43;;;8.30;99.90;;;;;;5038074;28;20490;-59
2022/10/10 06:25:46;;;;;;;5.95;4.30;;;8.30;99.90;;;;;;5040387;28;20033;-58
2022/10/10 06:28:14;;;;;;;4.88;4.38;;;8.20;99.90;;;;;;5040763;28;20466;-59
2022/10/10 06:30:41;;;;;;;7.28;4.90;;;8.20;99.90;;;;;;5040652;28;20037;-58
2022/10/10 06:33:07;;;;;;;4.55;4.15;;;8.20;99.90;;;;;;5042936;28;20087;-58
2022/10/10 06:35:36;;;;;;;7.00;5.13;;;8.10;99.90;;;;;;5040039;28;20025;-60
2022/10/10 06:38:02;;;;;;;8.85;4.35;;;8.20;99.90;;;;;;5041676;28;20044;-59
2022/10/10 06:40:28;;;;;;;6.85;5.28;;;8.20;99.90;;;;;;5034916;28;20565;-60
2022/10/10 06:42:53;;;;;;;5.95;5.35;;;8.30;99.90;;;;;;5041807;28;20025;-59
2022/10/10 06:45:19;;;;;;;6.22;5.10;;;8.40;99.90;;;;;;5038448;28;20495;-57
2022/10/10 06:47:44;;;;;;;5.57;5.07;;;8.50;99.90;;;;;;5038760;28;20088;-59
2022/10/10 06:50:10;;;;;;;7.97;5.28;;;8.60;99.90;;;;;;5037549;28;20037;-59
2022/10/10 06:52:35;;;;;;;7.63;5.00;;;8.60;99.90;;;;;;5035803;28;20104;-59
2022/10/10 06:55:01;;;;;;;9.88;4.95;;;8.70;99.90;;;;;;5039517;28;20041;-60
2022/10/10 06:57:27;;;;;;;9.95;5.90;;;8.70;99.90;;;;;;5038685;28;20025;-60
2022/10/10 06:59:52;;;;;;;9.40;5.38;;;8.70;99.90;;;;;;5037159;28;20025;-58
2022/10/10 07:02:18;;;;;;;7.85;5.07;;;8.70;99.90;;;;;;5037554;28;20021;-59
2022/10/10 07:04:44;;;;;;;7.65;5.60;;;8.80;99.90;;;;;;5041515;28;20033;-59
2022/10/10 07:07:09;;;;;;;7.47;5.15;;;8.80;99.90;;;;;;5039547;28;20535;-59
2022/10/10 07:09:35;;;;;;;9.20;5.57;;;8.90;99.90;;;;;;5040034;28;20093;-59
2022/10/10 07:12:01;;;;;;;8.38;5.18;;;8.90;99.90;;;;;;5037049;28;20025;-60
2022/10/10 07:14:26;;;;;;;11.70;5.65;;;9.00;99.90;;;;;;5039245;28;20043;-59
2022/10/10 07:16:52;;;;;;;5.50;4.65;;;9.10;99.90;;;;;;5037769;28;20592;-59
2022/10/10 07:19:19;;;;;;;5.68;4.32;;;9.20;99.90;;;;;;5035610;28;20033;-58
2022/10/10 07:21:44;;;;;;;5.32;4.43;;;9.30;99.90;;;;;;5040071;28;20022;-59
2022/10/10 07:24:10;;;;;;;6.07;4.05;;;9.50;99.90;;;;;;5037337;28;20485;-59
2022/10/10 07:26:37;;;;;;;4.97;3.33;;;9.60;99.90;;;;;;5034847;28;20025;-59
2022/10/10 07:29:04;;;;;;;5.40;2.95;;;9.80;99.90;;;;;;5036215;28;20111;-60
2022/10/10 07:31:30;;;;;;;5.43;3.22;;;9.90;99.90;;;;;;5037450;28;20535;-60
2022/10/10 07:33:56;;;;;;;4.93;3.20;;;10.00;99.90;;;;;;5037569;28;20018;-58
2022/10/10 07:36:22;;;;;;;6.40;3.30;;;10.20;99.90;;;;;;5038903;28;20095;-59
2022/10/10 07:38:51;;;;;;;9.75;3.45;;;10.20;99.90;;;;;;5036282;28;20076;-59
2022/10/10 07:41:18;;;;;;;6.93;3.00;;;10.30;99.90;;;;;;5033887;28;20034;-59
2022/10/10 07:43:44;;;;;;;3.90;2.50;;;10.40;99.90;;;;;;5035958;28;20028;-58
2022/10/10 07:46:18;;;;;;;8.55;3.60;;;10.40;99.90;;;;;;5034466;28;20021;-60
2022/10/10 07:48:45;;;;;;;4.38;3.28;;;10.40;99.90;;;;;;5034232;28;20064;-58
2022/10/10 07:51:11;;;;;;;3.65;2.85;;;10.40;99.90;;;;;;5039622;28;20033;-59
2022/10/10 07:53:37;;;;;;;4.22;2.83;;;10.50;99.90;;;;;;5040511;28;20048;-59
2022/10/10 07:56:07;;;;;;;4.40;2.97;;;10.50;99.90;;;;;;5033476;28;20033;-60
2022/10/10 07:58:33;;;;;;;5.82;3.33;;;10.60;99.90;;;;;;5044366;28;20048;-59
2022/10/10 08:01:18;;;;;;;6.10;2.90;;;10.60;99.90;;;;;;5046536;28;20020;-58
2022/10/10 08:03:44;;;;;;;4.00;3.38;;;10.70;99.90;;;;;;5038553;28;20100;-59
2022/10/10 08:06:13;;;;;;;7.18;3.08;;;10.70;99.90;;;;;;5040153;28;20531;-58
2022/10/10 08:08:39;;;;;;;6.28;3.28;;;10.80;99.90;;;;;;5036496;28;20288;-59
2022/10/10 08:11:07;;;;;;;6.85;3.40;;;10.90;99.90;;;;;;5035849;28;20104;-59
2022/10/10 08:13:33;;;;;;;6.82;3.13;;;11.00;99.90;;;;;;5037572;28;20100;-59
2022/10/10 08:16:00;;;;;;;5.45;3.38;;;11.00;99.90;;;;;;5038888;28;20032;-57
2022/10/10 08:18:26;;;;;;;4.10;2.67;;;11.10;99.90;;;;;;5037113;28;20030;-59
2022/10/10 08:20:58;;;;;;;6.90;2.65;;;11.20;99.90;;;;;;5040291;28;20036;-58
2022/10/10 08:23:24;;;;;;;8.98;2.47;;;11.30;99.90;;;;;;5036109;28;20060;-60
2022/10/10 08:25:49;;;;;;;5.10;2.80;;;11.40;99.90;;;;;;5035304;28;20037;-59
2022/10/10 08:28:15;;;;;;;4.18;3.38;;;11.50;99.90;;;;;;5036527;28;20100;-59
2022/10/10 08:30:41;;;;;;;4.90;2.75;;;11.50;99.90;;;;;;5034077;28;20032;-58
2022/10/10 08:33:06;;;;;;;5.70;2.85;;;11.60;99.90;;;;;;5034564;28;20025;-59
2022/10/10 08:35:37;;;;;;;8.43;3.60;;;11.70;99.90;;;;;;5037361;28;20087;-60
2022/10/10 08:38:02;;;;;;;4.30;2.55;;;11.90;99.90;;;;;;5032392;28;20695;-59
2022/10/10 08:40:28;;;;;;;4.75;2.90;;;12.00;99.90;;;;;;5041986;28;20021;-59
2022/10/10 08:42:57;;;;;;;5.05;2.53;;;12.10;99.90;;;;;;5042431;28;20037;-59
2022/10/10 08:45:25;;;;;;;4.07;2.95;;;12.20;99.90;;;;;;5040279;28;20662;-59
2022/10/10 08:48:03;;;;;;;4.03;2.20;;;12.30;99.90;;;;;;5042054;28;20505;-59
2022/10/10 08:50:39;;;;;;;4.68;3.05;;;12.40;99.90;;;;;;5042900;28;20500;-60
2022/10/10 08:53:23;;;;;;;4.70;2.67;;;12.50;99.90;;;;;;5035887;28;20029;-59
2022/10/10 08:55:50;;;;;;;4.75;2.38;;;12.50;99.90;;;;;;5040861;28;20041;-59
2022/10/10 08:58:22;;;;;;;3.22;2.55;;;12.60;99.90;;;;;;5042685;28;20086;-59
2022/10/10 09:01:23;;;;;;;6.20;2.70;;;12.60;99.90;;;;;;5019343;28;20095;-59
2022/10/10 09:03:54;;;;;;;4.20;3.03;;;12.80;99.90;;;;;;5036754;28;20560;-59
2022/10/10 09:06:29;;;;;;;5.78;2.70;;;13.00;99.90;;;;;;5043553;28;20382;-60
2022/10/10 09:09:11;;;;;;;2.85;2.55;;;13.20;99.90;;;;;;5040086;28;20029;-59
2022/10/10 09:11:52;;;;;;;4.80;3.47;;;13.40;99.90;;;;;;5040408;28;20670;-59
2022/10/10 09:14:55;;;;;;;7.90;3.10;;;13.50;99.90;;;;;;5040199;28;20029;-58
2022/10/10 09:17:55;;;;;;;8.50;3.20;;;13.60;99.90;;;;;;5039674;28;20784;-59
2022/10/10 09:20:21;;;;;;;5.35;3.60;;;13.80;99.90;;;;;;5042879;28;20040;-59
2022/10/10 09:23:27;;;;;;;4.30;2.97;;;13.90;99.90;;;;;;5039114;28;20041;-59
2022/10/10 09:26:01;;;;;;;4.22;3.50;;;14.00;99.90;;;;;;5039412;28;20121;-59
2022/10/10 09:28:39;;;;;;;5.22;2.58;;;13.90;99.90;;;;;;5037505;28;20108;-59
2022/10/10 09:31:18;;;;;;;4.75;2.88;;;13.90;99.90;;;;;;5036523;28;20068;-60
2022/10/10 09:34:03;;;;;;;5.15;2.83;;;14.40;99.90;;;;;;5039680;28;20048;-60
2022/10/10 09:36:33;;;;;;;4.90;3.28;;;15.20;99.90;;;;;;5042514;28;20037;-60
2022/10/10 09:39:05;;;;;;;4.90;3.38;;;16.10;99.90;;;;;;5034600;28;20040;-60
2022/10/10 09:41:39;;;;;;;6.15;3.08;;;16.70;99.90;;;;;;5041419;28;20029;-59
2022/10/10 09:44:10;;;;;;;4.85;3.22;;;17.70;99.90;;;;;;5040135;28;20438;-61
2022/10/10 09:46:37;;;;;;;6.05;3.35;;;18.60;99.90;;;;;;5035409;28;20056;-61
2022/10/10 09:49:04;;;;;;;4.03;3.03;;;19.20;99.90;;;;;;5043608;28;20024;-60
2022/10/10 09:51:30;;;;;;;4.72;3.28;;;19.10;99.90;;;;;;5042789;28;20044;-60
2022/10/10 09:53:56;;;;;;;4.57;3.33;;;18.90;99.90;;;;;;5010135;28;20076;-60
2022/10/10 09:56:24;;;;;;;5.82;3.38;;;18.80;99.90;;;;;;5018520;28;20124;-59
2022/10/10 09:58:52;;;;;;;3.40;2.78;;;18.60;99.90;;;;;;5019098;28;20662;-60
2022/10/10 10:01:19;;;;;;;4.63;2.88;;;18.70;99.90;;;;;;5020812;28;20033;-59
2022/10/10 10:04:05;;;;;;;4.18;3.08;;;18.60;99.90;;;;;;5024366;28;20029;-60
2022/10/10 10:06:30;;;;;;;4.60;3.03;;;18.50;99.90;;;;;;5018685;28;20026;-59
2022/10/10 10:09:00;;;;;;;4.70;2.95;;;18.80;99.90;;;;;;5018793;28;20095;-60
2022/10/10 10:11:30;;;;;;;3.75;2.72;;;18.80;99.90;;;;;;5017125;28;20049;-60
2022/10/10 10:13:58;;;;;;;3.83;2.80;;;19.00;99.90;;;;;;5020112;28;20037;-60
2022/10/10 10:16:36;;;;;;;3.50;2.90;;;18.70;99.90;;;;;;5017166;28;20026;-61
2022/10/10 10:19:03;;;;;;;5.57;2.80;;;18.50;99.90;;;;;;5020489;28;20101;-59
2022/10/10 10:21:29;;;;;;;3.55;2.88;;;18.60;99.90;;;;;;5018377;28;20136;-60
2022/10/10 10:24:15;;;;;;;6.22;2.85;;;18.70;99.90;;;;;;5016823;28;20042;-60
2022/10/10 10:26:42;;;;;;;4.32;3.10;;;18.50;99.90;;;;;;5016837;28;20743;-60
2022/10/10 10:29:28;;;;;;;5.38;2.92;;;18.40;99.90;;;;;;5025693;28;20025;-59
2022/10/10 10:32:12;;;;;;;3.47;3.03;;;18.40;99.90;;;;;;5016376;28;20026;-59
2022/10/10 10:34:58;;;;;;;6.72;3.80;;;18.00;99.90;;;;;;5014615;28;20033;-59
2022/10/10 10:37:28;;;;;;;5.00;3.00;;;17.70;99.90;;;;;;5013243;28;20084;-59
2022/10/10 10:40:15;;;;;;;5.45;2.83;;;17.50;99.90;;;;;;5028853;28;20902;-59
2022/10/10 10:43:18;;;;;;;3.70;2.78;;;17.40;99.90;;;;;;5014375;28;20473;-59
2022/10/10 10:46:14;;;;;;;5.20;3.05;;;17.30;99.90;;;;;;5018316;28;20041;-59
2022/10/10 10:48:41;;;;;;;4.57;3.83;;;17.00;99.90;;;;;;5015304;28;20037;-58
2022/10/10 10:51:27;;;;;;;10.15;3.38;;;17.00;99.90;;;;;;5014835;28;20032;-59
2022/10/10 10:53:59;;;;;;;4.55;3.35;;;17.00;99.90;;;;;;5020015;28;20037;-59
2022/10/10 10:56:47;;;;;;;6.13;3.55;;;17.00;99.90;;;;;;5015032;28;20572;-59
2022/10/10 10:59:38;;;;;;;4.95;3.13;;;17.00;99.90;;;;;;5020147;28;20026;-59
2022/10/10 11:02:05;;;;;;;5.43;2.55;;;17.10;99.90;;;;;;5019337;28;20123;-59
2022/10/10 11:04:37;;;;;;;4.82;3.35;;;17.10;99.90;;;;;;5016004;28;20493;-59
2022/10/10 11:07:14;;;;;;;6.72;3.20;;;17.10;99.90;;;;;;5015126;28;20020;-59
2022/10/10 11:09:48;;;;;;;5.78;3.38;;;17.10;99.90;;;;;;5015797;28;20113;-59
2022/10/10 11:12:35;;;;;;;5.50;3.30;;;17.20;99.90;;;;;;5016738;28;20033;-59
2022/10/10 11:15:08;;;;;;;5.38;3.53;;;17.30;99.90;;;;;;5016185;28;20399;-60
2022/10/10 11:17:44;;;;;;;8.90;4.35;;;17.20;99.90;;;;;;5014769;28;20573;-59
2022/10/10 11:20:27;;;;;;;6.47;2.90;;;17.30;99.90;;;;;;5014278;28;20026;-59
2022/10/10 11:23:03;;;;;;;8.95;3.95;;;17.30;99.90;;;;;;5018926;28;20049;-59
2022/10/10 11:25:34;;;;;;;3.75;2.92;;;17.40;99.90;;;;;;5013479;28;20030;-60
2022/10/10 11:27:59;;;;;;;4.22;2.50;;;17.40;99.90;;;;;;5019388;28;20104;-59
2022/10/10 11:30:30;;;;;;;7.40;2.72;;;17.40;99.90;;;;;;5016900;28;20121;-59
2022/10/10 11:33:08;;;;;;;4.95;2.95;;;17.60;99.90;;;;;;5017216;28;20045;-59
2022/10/10 11:35:41;;;;;;;8.48;3.10;;;17.60;99.90;;;;;;5018070;28;20022;-59
2022/10/10 11:38:38;;;;;;;13.43;3.55;;;17.70;99.90;;;;;;5014178;28;20053;-60
2022/10/10 11:41:16;;;;;;;8.50;2.70;;;17.90;99.90;;;;;;5014551;28;20033;-59
2022/10/10 11:43:49;;;;;;;6.28;3.00;;;18.10;99.90;;;;;;5019604;28;20104;-59
2022/10/10 11:46:52;;;;;;;5.00;2.53;;;18.20;99.90;;;;;;5014442;28;20025;-59
2022/10/10 11:49:23;;;;;;;6.75;2.70;;;18.20;99.90;;;;;;5009454;28;20042;-59
2022/10/10 11:51:54;;;;;;;3.95;2.75;;;18.00;99.90;;;;;;5015415;28;20048;-59
2022/10/10 11:54:43;;;;;;;4.68;2.67;;;17.90;99.90;;;;;;5017865;28;20037;-59
2022/10/10 11:57:34;;;;;;;4.90;3.47;;;17.70;99.90;;;;;;5016943;28;20753;-59
2022/10/10 12:00:04;;;;;;;;;;;17.70;99.90;;;;;;5017479;28;20026;-59
2022/10/10 12:02:33;;;;;;;4.70;2.70;;;17.70;99.90;;;;;;5018488;28;19909;-59
2022/10/10 12:04:59;;;;;;;6.25;2.78;;;17.80;99.90;;;;;;5018272;28;20086;-59
2022/10/10 12:07:31;;;;;;;4.45;2.80;;;17.90;99.90;;;;;;5017563;28;20483;-61
2022/10/10 12:10:10;;;;;;;3.67;2.40;;;17.90;99.90;;;;;;5021189;28;20030;-60
2022/10/10 12:12:43;;;;;;;2.97;2.35;;;18.00;99.90;;;;;;5018626;28;20026;-59
2022/10/10 12:15:16;;;;;;;6.68;2.97;;;18.10;99.90;;;;;;5019880;28;20033;-59
2022/10/10 12:17:45;;;;;;;5.95;2.90;;;18.10;99.90;;;;;;5022126;28;20083;-60
2022/10/10 12:20:13;;;;;;;7.47;3.15;;;18.00;99.90;;;;;;5021026;28;20023;-59
2022/10/10 12:22:39;;;;;;;4.40;3.00;;;17.90;99.90;;;;;;5019508;28;20036;-58
2022/10/10 12:25:23;;;;;;;3.85;2.85;;;17.90;99.90;;;;;;5025362;28;20030;-59
2022/10/10 12:28:21;;;;;;;5.32;2.88;;;18.00;99.90;;;;;;5022717;28;20046;-59
2022/10/10 12:30:56;;;;;;;5.25;2.78;;;18.20;99.90;;;;;;5021809;28;20409;-59
2022/10/10 12:33:24;;;;;;;4.78;3.08;;;18.40;99.90;;;;;;5022738;28;20075;-59
2022/10/10 12:35:51;;;;;;;5.05;2.80;;;18.60;99.90;;;;;;5017340;28;20129;-59
2022/10/10 12:38:24;;;;;;;5.47;3.03;;;18.90;99.60;;;;;;5017998;28;20033;-59
2022/10/10 12:40:56;;;;;;;4.43;2.70;;;19.00;99.90;;;;;;5024157;28;20494;-59
2022/10/10 12:43:34;;;;;;;5.03;2.40;;;19.00;99.90;;;;;;5021214;28;20025;-59
2022/10/10 12:46:16;;;;;;;5.72;2.55;;;19.00;99.90;;;;;;5021776;28;20076;-59
2022/10/10 12:48:43;;;;;;;4.65;2.72;;;19.00;99.90;;;;;;5022140;28;20510;-59
2022/10/10 12:51:29;;;;;;;4.15;2.42;;;18.90;99.90;;;;;;5024985;28;20033;-59
2022/10/10 12:53:59;;;;;;;4.88;2.25;;;18.80;99.90;;;;;;5018529;28;20513;-59
2022/10/10 12:56:45;;;;;;;3.33;2.17;;;18.70;99.90;;;;;;5018512;28;20240;-59
2022/10/10 12:59:20;;;;;;;4.40;2.40;;;18.50;99.90;;;;;;5023038;28;20042;-59
2022/10/10 13:02:02;;;;;;;4.90;2.33;;;18.40;99.90;;;;;;5020482;28;20038;-59
2022/10/10 13:04:28;;;;;;;6.55;2.50;;;18.30;99.90;;;;;;5018563;28;20041;-60
2022/10/10 13:06:59;;;;;;;10.70;2.47;;;18.20;99.90;;;;;;5021061;28;20484;-60
2022/10/10 13:09:30;;;;;;;5.75;2.20;;;18.40;99.90;;;;;;5018749;28;20396;-59
2022/10/10 13:12:01;;;;;;;3.33;2.15;;;18.60;99.90;;;;;;5019077;28;20030;-59